Flight Track Log - Related Links

Times and Time Zones

All times are in EDT time to prevent confusion due to time zone crossing. See the SWA3206 flight status page for this flight to view local times or setup timezone preferences in your user account.

Time Position Orientation Groundspeed Altitude Reporting Facility
EDT Latitude Longitude Course Direction KTS MPH feet Rate Location/Type
Fri 06:58:37 PM 32.7433 -117.2192 90° East 167 192 1,600  Level Los Angeles Center
Fri 06:59:39 PM 32.7547 -117.2792 283° West 195 224 3,900 3,194 Climbing Los Angeles Center
Fri 07:00:41 PM 32.6992 -117.3250 215° Southwest 248 285 8,200 3,774 Climbing Los Angeles Center
Fri 07:01:43 PM 32.6525 -117.2594 130° Southeast 259 298 11,700 2,516 Climbing Los Angeles Center
Fri 07:02:45 PM 32.6367 -117.1522 100° East 327 376 13,400 2,371 Climbing Los Angeles Center
Fri 07:03:47 PM 32.6186 -117.0319 100° East 363 418 16,600 3,000 Climbing Los Angeles Center
Fri 07:04:00 PM 32.6167 -116.7782 90° East  Level FlightAware Approximate
Fri 07:04:49 PM 32.6178 -116.9031 90° East 392 451 19,600  Level Los Angeles Center
Fri 07:05:51 PM 32.6344 -116.7367 83° East 423 487 22,800 2,710 Climbing Los Angeles Center
Fri 07:06:53 PM 32.6478 -116.5950 84° East 436 502 25,200 2,177 Climbing Los Angeles Center
Fri 07:07:55 PM 32.6619 -116.4492 83° East 452 520 27,300 1,839 Climbing Los Angeles Center
Fri 07:08:57 PM 32.6758 -116.3033 84° East 454 522 29,000 823 Climbing Los Angeles Center
Fri 07:09:59 PM 32.6892 -116.1558 84° East 457 526 29,000  Level Los Angeles Center
Fri 07:11:01 PM 32.7064 -115.9800 83° East 454 522 29,000  Level Los Angeles Center
Fri 07:12:03 PM 32.7197 -115.8325 84° East 453 521 29,000  Level Los Angeles Center
Fri 07:13:05 PM 32.7333 -115.6858 84° East 451 519 29,000  Level Los Angeles Center
Fri 07:14:07 PM 32.7464 -115.5381 84° East 452 520 29,000  Level Los Angeles Center
Fri 07:15:09 PM 32.7533 -115.3875 87° East 460 529 29,000  Level Los Angeles Center
Fri 07:16:11 PM 32.7586 -115.2056 88° East 460 529 29,000  Level Los Angeles Center
Fri 07:17:13 PM 32.7628 -115.0556 88° East 458 527 29,000  Level Los Angeles Center
Fri 07:18:15 PM 32.7650 -114.9036 89° East 460 529 29,000  Level Los Angeles Center
Fri 07:19:17 PM 32.7675 -114.7533 89° East 459 528 29,000  Level Los Angeles Center
Fri 07:20:19 PM 32.7711 -114.6028 88° East 455 524 29,000  Level Los Angeles Center
Fri 07:21:21 PM 32.7728 -114.4517 89° East 457 526 29,000 -435 Level Los Angeles Center
Fri 07:22:23 PM 32.7747 -114.2711 89° East 458 527 28,100 -1,597 Descending Los Angeles Center
Fri 07:23:25 PM 32.7733 -114.1228 91° East 452 520 25,700 -2,022 Descending Los Angeles Center
Fri 07:23:55 PM 32.7747 -114.0447 89° East 452 520 25,000 -457 Descending Albuquerque Center
Fri 07:24:57 PM 32.7819 -113.9000 87° East 445 512 25,000  Level Albuquerque Center
Fri 07:25:58 PM 32.8067 -113.7578 78° East 441 507 25,000  Level Albuquerque Center
Fri 07:27:00 PM 32.8603 -113.6300 63° Northeast 439 505 25,000 -439 Level Albuquerque Center
Fri 07:28:01 PM 32.9242 -113.5078 58° Northeast 431 496 24,100 -1,512 Descending Albuquerque Center
Fri 07:29:03 PM 32.9858 -113.3889 58° Northeast 423 487 21,900 -2,098 Descending Albuquerque Center
Fri 07:30:04 PM 33.0436 -113.2764 58° Northeast 405 466 19,800 -2,098 Descending Albuquerque Center
Fri 07:31:06 PM 33.1008 -113.1678 58° Northeast 391 450 17,600 -2,098 Descending Albuquerque Center
Fri 07:32:07 PM 33.1550 -113.0611 59° Northeast 380 437 15,500 -2,000 Descending Albuquerque Center
Fri 07:33:09 PM 33.2086 -112.9589 58° Northeast 370 426 13,500 -1,854 Descending Albuquerque Center
Fri 07:34:10 PM 33.2697 -112.8386 59° Northeast 356 410 11,700 -1,512 Descending Albuquerque Center
Fri 07:35:12 PM 33.3078 -112.7444 64° Northeast 324 373 10,400 -878 Descending Albuquerque Center
Fri 07:36:13 PM 33.3406 -112.6558 66° East 300 345 9,900 -780 Descending Albuquerque Center
Fri 07:37:15 PM 33.3706 -112.5817 64° Northeast 272 313 8,800 -927 Descending Albuquerque Center
Fri 07:38:16 PM 33.4008 -112.5019 66° East 258 297 8,000 -829 Descending Albuquerque Center
Fri 07:39:18 PM 33.4264 -112.4308 67° East 236 272 7,100 -1,016 Descending Albuquerque Center
Fri 07:40:20 PM 33.4286 -112.3439 88° East 225 259 5,900 -976 Descending Albuquerque Center
Fri 07:41:21 PM 33.4286 -112.2728 90° East 216 249 5,100 -927 Descending Albuquerque Center
Fri 07:42:23 PM 33.4289 -112.1997 90° East 218 251 4,000 -976 Descending Albuquerque Center
Fri 07:43:24 PM 33.4300 -112.1314 89° East 208 239 3,100 -878 Descending Albuquerque Center
Fri 07:44:26 PM 33.4311 -112.0736 89° East 175 201 2,200 -976 Descending Albuquerque Center
Fri 07:45:27 PM 33.4308 -112.0258 90° East 148 170 1,100 -1,082 Descending Albuquerque Center
Fri 07:47:00 PM 33.4343 -112.0116 90° East  Level Estimated

Login

Don't have an account? Register now (free) for customized features, flight alerts, and more!